Time;durP1;ratioP1;P1;durP2;ratioP2;P2;SDS_P1;SDS_P2;PMS_P1;PMS_P2;Temp;Humidity;BMP_temperature;BMP_pressure;BME280_temperature;BME280_humidity;BME280_pressure;Samples;Min_cycle;Max_cycle;Signal;HPM_P1;HPM_P2
2021/11/24 00:01:30;;;;;;;108.65;48.83;;;;;;;-1.82;77.30;101490.33;1420720;91;21523;-87
2021/11/24 00:03:56;;;;;;;94.92;45.58;;;;;;;-1.86;77.53;101487.42;1431013;91;21515;-86
2021/11/24 00:06:22;;;;;;;114.10;53.70;;;;;;;-1.88;77.23;101487.45;1432916;91;22396;-87
2021/11/24 00:08:49;;;;;;;117.63;55.27;;;;;;;-1.92;77.73;101487.14;1434118;91;21523;-87
2021/11/24 00:11:16;;;;;;;120.42;54.67;;;;;;;-1.95;77.78;101478.60;1414301;91;21427;-87
2021/11/24 00:13:42;;;;;;;130.00;57.20;;;;;;;-1.95;77.77;101482.05;1430460;91;22432;-86
2021/11/24 00:16:08;;;;;;;138.47;58.65;;;;;;;-1.95;77.82;101485.94;1431082;91;21523;-87
2021/11/24 00:18:35;;;;;;;135.18;58.68;;;;;;;-1.96;77.56;101482.91;1437230;91;21568;-86
2021/11/24 00:21:01;;;;;;;128.07;57.65;;;;;;;-1.93;77.79;101482.83;1433565;91;22397;-85
2021/11/24 00:23:27;;;;;;;115.72;54.42;;;;;;;-1.93;77.82;101482.83;1432081;91;21544;-85
2021/11/24 00:25:53;;;;;;;90.72;44.40;;;;;;;-1.90;77.29;101484.48;1438498;91;22448;-85
2021/11/24 00:28:20;;;;;;;87.85;43.10;;;;;;;-1.88;77.29;101486.61;1435881;91;21560;-85
2021/11/24 00:30:47;;;;;;;89.35;45.08;;;;;;;-1.87;76.88;101485.28;1432704;91;21641;-83
2021/11/24 00:33:14;;;;;;;73.22;39.58;;;;;;;-1.88;76.83;101490.05;1425176;91;21538;-84
2021/11/24 00:35:40;;;;;;;79.30;40.65;;;;;;;-1.90;76.58;101489.68;1434806;91;21552;-84
2021/11/24 00:38:06;;;;;;;81.80;40.78;;;;;;;-1.92;77.06;101488.45;1428814;91;21450;-85
2021/11/24 00:40:33;;;;;;;74.42;38.88;;;;;;;-1.92;76.72;101492.34;1432264;91;21501;-87
2021/11/24 00:42:59;;;;;;;91.65;43.75;;;;;;;-1.90;76.94;101502.66;1430020;91;21575;-86
2021/11/24 00:45:25;;;;;;;77.95;39.88;;;;;;;-1.89;76.68;101494.00;1416938;91;21619;-86
2021/11/24 00:47:51;;;;;;;78.42;41.20;;;;;;;-1.89;76.59;101500.03;1432336;90;21479;-85
2021/11/24 00:50:17;;;;;;;78.40;39.48;;;;;;;-1.93;77.27;101493.20;1418688;91;21574;-85
2021/11/24 00:52:45;;;;;;;83.60;42.73;;;;;;;-1.94;76.96;101498.45;1408275;92;22396;-85
2021/11/24 00:55:11;;;;;;;93.37;42.98;;;;;;;-1.98;76.90;101497.70;1431557;90;21590;-86
2021/11/24 00:57:37;;;;;;;81.53;42.15;;;;;;;-1.99;76.89;101497.72;1410509;92;22411;-87
2021/11/24 01:00:06;;;;;;;80.25;44.63;;;;;;;-2.01;76.96;101500.38;1435758;90;22043;-86
2021/11/24 01:02:32;;;;;;;82.97;44.75;;;;;;;-2.06;77.08;101499.19;1415282;92;21604;-86
2021/11/24 01:04:58;;;;;;;92.65;47.50;;;;;;;-2.09;77.24;101497.97;1436624;90;21465;-86
2021/11/24 01:07:24;;;;;;;85.62;43.85;;;;;;;-2.11;77.21;101491.13;1413561;92;21516;-87
2021/11/24 01:09:51;;;;;;;92.17;48.52;;;;;;;-2.15;77.24;101488.22;1428801;90;21568;-87
2021/11/24 01:12:21;;;;;;;103.55;55.40;;;;;;;-2.19;77.25;101491.31;1408894;92;22425;-85
2021/11/24 01:14:47;;;;;;;102.70;54.90;;;;;;;-2.18;77.09;101489.59;1414131;91;21582;-86
2021/11/24 01:17:13;;;;;;;96.55;51.80;;;;;;;-2.19;77.14;101490.47;1423144;92;21486;-86
2021/11/24 01:19:39;;;;;;;97.72;52.13;;;;;;;-2.20;77.29;101488.33;1427290;90;21537;-87
2021/11/24 01:22:05;;;;;;;90.07;45.12;;;;;;;-2.23;77.32;101488.86;1411229;92;21509;-87
2021/11/24 01:24:32;;;;;;;91.32;44.85;;;;;;;-2.28;77.32;101485.92;1436619;90;21604;-87
2021/11/24 01:26:58;;;;;;;88.90;42.50;;;;;;;-2.30;77.37;101483.84;1414975;92;21606;-86
2021/11/24 01:29:24;;;;;;;84.13;44.00;;;;;;;-2.30;77.48;101492.91;1430824;90;22456;-86
2021/11/24 01:31:50;;;;;;;86.90;46.97;;;;;;;-2.30;77.58;101474.76;1406096;92;21525;-86
2021/11/24 01:34:17;;;;;;;78.15;40.55;;;;;;;-2.30;77.58;101474.76;1417463;92;23238;-87
2021/11/24 01:36:43;;;;;;;79.00;42.00;;;;;;;-2.28;77.84;101470.81;1412855;92;21569;-86
2021/11/24 01:39:09;;;;;;;81.45;44.90;;;;;;;-2.29;77.84;101476.91;1408476;92;22411;-86
2021/11/24 01:41:35;;;;;;;81.12;43.33;;;;;;;-2.28;77.74;101470.81;1410026;92;21398;-87
2021/11/24 01:44:02;;;;;;;83.17;41.80;;;;;;;-2.30;77.33;101467.43;1416723;92;22466;-86
2021/11/24 01:46:29;;;;;;;82.02;43.45;;;;;;;-2.32;77.28;101466.16;1412251;92;21516;-86
2021/11/24 01:48:56;;;;;;;82.88;42.38;;;;;;;-2.36;77.08;101464.55;1412247;92;21536;-86
2021/11/24 01:51:23;;;;;;;84.42;43.48;;;;;;;-2.38;77.12;101462.44;1413077;92;21538;-87
2021/11/24 01:53:49;;;;;;;75.03;40.30;;;;;;;-2.40;77.21;101471.98;1418828;92;21421;-86
2021/11/24 01:56:16;;;;;;;88.20;45.08;;;;;;;-2.42;77.20;101465.13;1409759;92;21502;-86
2021/11/24 01:58:44;;;;;;;88.10;44.58;;;;;;;-2.45;77.22;101471.24;1413657;92;21538;-86
2021/11/24 02:01:10;;;;;;;72.85;37.98;;;;;;;-2.47;77.25;101470.45;1418112;92;21620;-86
2021/11/24 02:03:36;;;;;;;75.78;40.67;;;;;;;-2.51;77.33;101467.06;1418878;92;21760;-86
2021/11/24 02:06:02;;;;;;;79.90;40.63;;;;;;;-2.52;77.29;101465.38;1416793;92;21442;-85
2021/11/24 02:08:29;;;;;;;80.92;40.03;;;;;;;-2.54;78.00;101463.70;1404885;92;21494;-86
2021/11/24 02:10:58;;;;;;;81.55;41.70;;;;;;;-2.52;77.45;101461.48;1417924;92;21494;-86
2021/11/24 02:13:25;;;;;;;81.75;42.80;;;;;;;-2.52;77.28;101467.13;1416688;92;22530;-87
2021/11/24 02:15:51;;;;;;;82.22;42.27;;;;;;;-2.55;76.97;101465.45;1413826;92;21442;-87
2021/11/24 02:18:17;;;;;;;83.37;42.55;;;;;;;-2.59;77.52;101466.85;1414553;92;21472;-87
2021/11/24 02:20:45;;;;;;;91.15;43.28;;;;;;;-2.60;77.52;101466.45;1416935;92;21502;-87
2021/11/24 02:23:14;;;;;;;84.10;43.28;;;;;;;-2.60;77.55;101469.05;1412325;92;21555;-87
2021/11/24 02:25:43;;;;;;;85.90;44.48;;;;;;;-2.58;77.60;101464.69;1412875;92;21545;-87
2021/11/24 02:28:11;;;;;;;77.17;41.48;;;;;;;-2.58;77.57;101471.16;1418178;92;21458;-87
2021/11/24 02:30:38;;;;;;;85.05;45.15;;;;;;;-2.61;77.55;101467.36;1403571;92;21635;-86
2021/11/24 02:33:04;;;;;;;82.67;45.55;;;;;;;-2.59;77.70;101469.44;1405374;92;21606;-87
2021/11/24 02:35:31;;;;;;;83.05;45.12;;;;;;;-2.57;77.70;101472.86;1414846;92;21726;-88
2021/11/24 02:37:58;;;;;;;87.30;46.20;;;;;;;-2.59;77.51;101466.85;1420670;92;21479;-85
2021/11/24 02:40:31;;;;;;;81.85;44.85;;;;;;;-2.63;77.48;101469.12;1410015;92;21449;-85
2021/11/24 02:42:58;;;;;;;85.92;44.95;;;;;;;-2.66;77.52;101470.50;1416350;92;21508;-85
2021/11/24 02:45:25;;;;;;;83.78;43.98;;;;;;;-2.64;77.60;101467.44;1413890;92;22301;-85
2021/11/24 02:47:51;;;;;;;86.50;43.92;;;;;;;-2.65;77.31;101461.38;1415017;92;21449;-85
2021/11/24 02:50:17;;;;;;;84.30;44.20;;;;;;;-2.68;77.41;101458.02;1417780;92;22589;-87
2021/11/24 02:52:44;;;;;;;87.57;44.13;;;;;;;-2.72;77.00;101461.13;1416799;92;21620;-85
2021/11/24 02:55:10;;;;;;;74.70;41.05;;;;;;;-2.76;77.15;101461.66;1425027;92;21586;-85
2021/11/24 02:57:43;;;;;;;88.70;45.70;;;;;;;-2.81;77.26;101455.73;1414311;92;21679;-85
2021/11/24 03:00:37;;;;;;;79.00;43.92;;;;;;;-2.83;77.37;101458.80;1407587;92;22507;-85
2021/11/24 03:03:03;;;;;;;78.80;41.53;;;;;;;-2.85;77.77;101461.89;1407764;93;22411;-85
2021/11/24 03:05:31;;;;;;;75.90;39.53;;;;;;;-2.87;77.75;101466.25;1405955;93;21420;-85
2021/11/24 03:07:59;;;;;;;77.30;39.80;;;;;;;-2.88;77.98;101467.12;1412737;92;22534;-85
2021/11/24 03:10:26;;;;;;;75.80;40.60;;;;;;;-2.85;77.74;101467.08;1409785;92;22344;-85
2021/11/24 03:12:52;;;;;;;76.85;40.85;;;;;;;-2.87;77.55;101461.06;1411913;92;21441;-86
2021/11/24 03:15:19;;;;;;;69.10;39.78;;;;;;;-2.89;77.36;101461.54;1408893;93;22492;-85
2021/11/24 03:17:45;;;;;;;74.97;39.00;;;;;;;-2.90;77.15;101463.73;1408199;93;21539;-85
2021/11/24 03:20:12;;;;;;;76.80;39.40;;;;;;;-2.88;77.12;101462.38;1411047;93;21647;-84
2021/11/24 03:22:39;;;;;;;72.47;40.95;;;;;;;-2.89;77.29;101464.58;1412663;92;21546;-85
2021/11/24 03:25:07;;;;;;;65.25;37.23;;;;;;;-2.92;77.74;101464.20;1409979;92;21634;-85
2021/11/24 03:27:41;;;;;;;89.15;41.73;;;;;;;-2.94;77.71;101463.38;1405630;92;22500;-85
2021/11/24 03:30:18;;;;;;;73.72;39.92;;;;;;;-2.95;77.87;101459.95;1407051;92;21538;-84
2021/11/24 03:32:44;;;;;;;73.52;39.65;;;;;;;-2.95;77.58;101458.65;1406262;92;21449;-85
2021/11/24 03:35:11;;;;;;;82.02;40.78;;;;;;;-2.97;77.64;101458.27;1399872;93;21508;-84
2021/11/24 03:37:37;;;;;;;73.67;37.93;;;;;;;-3.00;78.00;101460.48;1410929;93;23487;-85
2021/11/24 03:40:06;;;;;;;72.90;41.25;;;;;;;-2.99;78.08;101457.48;1418336;93;21479;-85
2021/11/24 03:42:33;;;;;;;73.45;40.33;;;;;;;-2.97;77.74;101457.83;1414818;92;22931;-86
2021/11/24 03:45:00;;;;;;;78.52;42.05;;;;;;;-2.97;77.61;101455.23;1413492;92;21612;-85
2021/11/24 03:47:27;;;;;;;73.22;39.65;;;;;;;-2.98;77.42;101455.29;1406340;93;21486;-86
2021/11/24 03:49:53;;;;;;;78.45;41.75;;;;;;;-2.98;77.26;101456.13;1393890;93;22426;-85
2021/11/24 03:52:19;;;;;;;83.70;42.17;;;;;;;-3.00;77.55;101454.02;1391435;94;21517;-84
2021/11/24 03:54:46;;;;;;;74.00;38.33;;;;;;;-3.01;77.39;101450.18;1393846;94;22436;-84
2021/11/24 03:57:12;;;;;;;77.80;42.23;;;;;;;-3.03;77.19;101454.09;1397037;94;21531;-85
2021/11/24 03:59:38;;;;;;;69.50;40.20;;;;;;;-3.03;77.24;101455.83;1391541;94;22381;-86
2021/11/24 04:02:04;;;;;;;79.77;41.70;;;;;;;-3.05;77.29;101456.30;1396855;94;21553;-85
2021/11/24 04:04:30;;;;;;;75.63;40.93;;;;;;;-3.09;77.41;101456.83;1392313;94;21523;-85
2021/11/24 04:06:57;;;;;;;75.83;41.88;;;;;;;-3.12;77.50;101457.34;1389711;94;21731;-84
2021/11/24 04:09:23;;;;;;;83.50;42.53;;;;;;;-3.14;77.53;101459.11;1383100;94;22397;-84
2021/11/24 04:11:49;;;;;;;74.85;41.83;;;;;;;-3.16;77.76;101460.45;1394851;94;21435;-85
2021/11/24 04:14:15;;;;;;;81.25;42.80;;;;;;;-3.14;77.76;101468.17;1392445;94;22543;-85
2021/11/24 04:16:41;;;;;;;78.15;40.00;;;;;;;-3.19;77.58;101471.73;1393065;94;22042;-85
2021/11/24 04:19:07;;;;;;;76.50;42.70;;;;;;;-3.19;77.77;101474.77;1396670;94;21479;-87
2021/11/24 04:21:34;;;;;;;83.87;42.33;;;;;;;-3.20;77.84;101470.45;1401363;94;21494;-88
2021/11/24 04:24:00;;;;;;;86.30;44.00;;;;;;;-3.18;78.02;101474.72;1392040;94;21473;-84
2021/11/24 04:26:26;;;;;;;107.05;49.85;;;;;;;-3.19;77.89;101471.73;1387949;94;21530;-84
2021/11/24 04:28:53;;;;;;;176.07;82.92;;;;;;;-3.20;77.62;101472.59;1378652;94;21486;-84
2021/11/24 04:31:19;;;;;;;138.57;64.05;;;;;;;-3.21;77.83;101469.61;1394403;94;22374;-87
2021/11/24 04:33:45;;;;;;;100.95;52.33;;;;;;;-3.19;77.83;101471.73;1392402;94;21509;-87
2021/11/24 04:36:12;;;;;;;78.85;41.92;;;;;;;-3.21;77.65;101465.73;1395868;94;22432;-86
2021/11/24 04:38:39;;;;;;;92.72;48.60;;;;;;;-3.24;77.89;101472.72;1390269;94;21449;-87
2021/11/24 04:41:05;;;;;;;88.62;44.30;;;;;;;-3.25;77.68;101474.46;1386541;94;21458;-86
2021/11/24 04:43:36;;;;;;;85.62;43.28;;;;;;;-3.27;78.33;101479.27;1383574;94;23541;-86
2021/11/24 04:46:00;;;;;;;75.30;40.95;;;;;;;-3.28;78.13;101474.53;1387520;94;22507;-87
2021/11/24 04:48:28;;;;;;;81.92;42.55;;;;;;;-3.27;77.71;101480.56;1389239;94;21628;-89
2021/11/24 04:50:54;;;;;;;79.65;41.00;;;;;;;-3.25;77.63;101482.64;1388609;94;21538;-88
2021/11/24 04:53:21;;;;;;;69.37;40.08;;;;;;;-3.27;77.64;101480.56;1381462;94;21376;-89
2021/11/24 04:55:47;;;;;;;73.60;40.08;;;;;;;-3.28;77.52;101483.59;1378094;94;21530;-89
2021/11/24 04:58:14;;;;;;;75.83;41.35;;;;;;;-3.32;77.44;101476.77;1380579;94;22135;-89
2021/11/24 05:00:41;;;;;;;90.20;44.35;;;;;;;-3.35;77.79;101480.72;1377967;94;22374;-89
2021/11/24 05:03:07;;;;;;;84.75;44.13;;;;;;;-3.36;77.62;101475.14;1396535;94;21613;-89
2021/11/24 05:05:33;;;;;;;75.20;42.90;;;;;;;-3.34;77.52;101480.27;1379386;94;21517;-88
2021/11/24 05:08:01;;;;;;;76.50;40.75;;;;;;;-3.37;77.88;101476.00;1393593;94;22447;-88
2021/11/24 05:10:29;;;;;;;97.80;48.02;;;;;;;-3.39;77.61;101477.80;1380869;94;21561;-88
2021/11/24 05:12:56;;;;;;;118.30;54.77;;;;;;;-3.41;77.93;101476.97;1394263;94;21516;-87
2021/11/24 05:15:31;;;;;;;92.45;43.28;;;;;;;-3.43;77.69;101476.14;1384523;94;21428;-88
2021/11/24 05:18:00;;;;;;;62.98;37.13;;;;;;;-3.43;77.68;101472.26;1382213;94;22395;-88
2021/11/24 05:20:24;;;;;;;72.62;36.65;;;;;;;-3.41;77.79;101482.15;1388658;94;22523;-89
2021/11/24 05:22:49;;;;;;;72.75;39.30;;;;;;;-3.44;77.76;101479.17;1392625;94;22559;-89
2021/11/24 05:25:15;;;;;;;63.78;38.02;;;;;;;-3.46;77.85;101480.94;1396929;94;21539;-89
2021/11/24 05:27:41;;;;;;;70.25;38.05;;;;;;;-3.47;77.88;101483.12;1386198;94;21427;-89
2021/11/24 05:30:12;;;;;;;72.10;36.53;;;;;;;-3.46;77.93;101483.97;1389826;94;21568;-87
2021/11/24 05:32:39;;;;;;;63.00;36.25;;;;;;;-3.48;77.95;101484.44;1389565;94;22513;-87
2021/11/24 05:35:06;;;;;;;68.20;35.20;;;;;;;-3.49;77.84;101481.45;1409577;92;21517;-88
2021/11/24 05:37:32;;;;;;;66.55;38.67;;;;;;;-3.50;77.75;101481.91;1410597;92;21693;-90
2021/11/24 05:39:59;;;;;;;75.12;38.02;;;;;;;-3.50;77.58;101488.38;1411672;92;21426;-89
2021/11/24 05:42:27;;;;;;;82.27;41.30;;;;;;;-3.46;77.83;101491.73;1414753;92;21508;-89
2021/11/24 05:45:12;;;;;;;84.77;43.90;;;;;;;-3.45;78.30;101496.05;1410074;92;21723;-90
2021/11/24 05:47:54;;;;;;;67.03;37.55;;;;;;;-3.47;78.01;101492.63;1403718;92;22232;-89
2021/11/24 05:50:18;;;;;;;76.95;41.88;;;;;;;-3.49;78.07;101490.51;1417238;92;21701;-89
2021/11/24 05:52:44;;;;;;;76.80;41.77;;;;;;;-3.52;78.02;101489.28;1411113;92;21598;-89
2021/11/24 05:55:10;;;;;;;66.70;36.95;;;;;;;-3.53;78.11;101487.59;1414058;92;21560;-90
2021/11/24 05:57:36;;;;;;;67.05;36.63;;;;;;;-3.56;78.04;101496.27;1374584;94;21567;-89
2021/11/24 06:00:05;;;;;;;67.25;36.25;;;;;;;-3.66;77.59;101489.11;1412323;92;22344;-89
2021/11/24 06:02:31;;;;;;;73.62;38.28;;;;;;;-3.71;77.42;101492.26;1413184;92;22469;-89
2021/11/24 06:04:58;;;;;;;83.52;41.53;;;;;;;-3.71;77.82;101489.67;1406106;92;21479;-90
2021/11/24 06:07:24;;;;;;;76.50;38.67;;;;;;;-3.67;77.84;101495.18;1416927;92;21604;-88
2021/11/24 06:09:50;;;;;;;86.35;44.00;;;;;;;-3.65;78.25;101495.16;1420019;92;21501;-89
2021/11/24 06:12:17;;;;;;;78.75;38.30;;;;;;;-3.59;78.25;101501.95;1413032;92;21419;-87
2021/11/24 06:14:44;;;;;;;93.50;44.10;;;;;;;-3.58;78.14;101500.61;1403242;92;21464;-87
2021/11/24 06:17:16;;;;;;;110.65;44.63;;;;;;;-3.55;77.93;101504.87;1396261;92;21487;-87
2021/11/24 06:19:42;;;;;;;118.40;53.33;;;;;;;-3.50;78.18;101506.94;1393483;93;21663;-88
2021/11/24 06:22:09;;;;;;;123.65;53.45;;;;;;;-3.43;78.19;101505.46;1408720;93;21494;-89
2021/11/24 06:24:35;;;;;;;203.07;78.72;;;;;;;-3.39;78.09;101515.33;1409714;93;21450;-89
2021/11/24 06:27:02;;;;;;;196.30;76.92;;;;;;;-3.33;77.99;101516.49;1398209;92;21501;-88
2021/11/24 06:29:28;;;;;;;187.30;76.55;;;;;;;-3.26;77.92;101521.94;1407540;92;22471;-88
2021/11/24 06:31:54;;;;;;;178.85;73.37;;;;;;;-3.22;78.03;101527.48;1407715;93;21644;-88
2021/11/24 06:34:20;;;;;;;166.25;75.37;;;;;;;-3.19;78.04;101524.81;1394819;93;21472;-88
2021/11/24 06:36:47;;;;;;;157.37;73.87;;;;;;;-3.18;77.95;101525.66;1377602;93;21561;-87
2021/11/24 06:39:14;;;;;;;132.00;63.63;;;;;;;-3.11;77.87;101524.63;1412982;92;21529;-86
2021/11/24 06:41:40;;;;;;;136.25;63.52;;;;;;;-3.01;77.90;101528.73;1380291;94;22395;-86
2021/11/24 06:44:06;;;;;;;118.08;58.48;;;;;;;-2.96;77.93;101532.08;1414453;92;21663;-87
2021/11/24 06:46:36;;;;;;;117.90;57.55;;;;;;;-2.87;77.79;101526.29;1410693;92;22292;-87
2021/11/24 06:49:02;;;;;;;113.35;53.20;;;;;;;-2.81;77.89;101522.26;1414472;92;21501;-87
2021/11/24 06:51:29;;;;;;;99.72;47.13;;;;;;;-2.78;77.89;101524.33;1390620;92;21561;-87
2021/11/24 06:53:55;;;;;;;89.17;46.75;;;;;;;-2.75;78.04;101523.41;1410122;92;22381;-86
2021/11/24 06:56:22;;;;;;;82.88;43.25;;;;;;;-2.71;78.77;101523.72;1417866;92;21507;-86
2021/11/24 06:58:48;;;;;;;88.25;43.20;;;;;;;-2.67;78.47;101521.94;1422547;92;21702;-86
2021/11/24 07:01:15;;;;;;;74.20;41.70;;;;;;;-2.59;78.24;101523.88;1371152;94;21650;-86
2021/11/24 07:03:41;;;;;;;78.70;41.33;;;;;;;-2.47;78.34;101525.31;1352537;93;21471;-86
2021/11/24 07:06:07;;;;;;;79.45;43.48;;;;;;;-2.40;78.37;101530.32;1415429;92;21633;-86
2021/11/24 07:08:33;;;;;;;82.92;44.05;;;;;;;-2.34;78.23;101531.46;1390636;92;22485;-86
2021/11/24 07:11:00;;;;;;;85.03;45.25;;;;;;;-2.24;78.12;101525.62;1388457;92;21442;-87
2021/11/24 07:13:26;;;;;;;74.65;40.38;;;;;;;-2.16;78.37;101534.48;1371650;94;21530;-87
2021/11/24 07:15:52;;;;;;;85.42;41.70;;;;;;;-2.07;78.49;101534.27;1398343;93;22425;-87
2021/11/24 07:18:18;;;;;;;88.87;45.43;;;;;;;-1.97;78.89;101537.01;1383761;94;21524;-87
2021/11/24 07:20:45;;;;;;;124.60;58.90;;;;;;;-1.86;78.61;101538.03;1397376;92;21515;-86
2021/11/24 07:23:11;;;;;;;106.83;54.18;;;;;;;-1.73;78.64;101539.83;1418954;92;22350;-87
2021/11/24 07:25:38;;;;;;;96.37;51.35;;;;;;;-1.62;78.72;101544.28;1413487;92;21486;-87
2021/11/24 07:28:04;;;;;;;119.87;58.98;;;;;;;-1.53;78.79;101537.53;1412893;92;21545;-87
2021/11/24 07:30:31;;;;;;;130.87;57.95;;;;;;;-1.40;78.60;101544.09;1396413;94;21486;-87
2021/11/24 07:32:57;;;;;;;128.30;59.77;;;;;;;-1.26;78.63;101541.09;1388112;93;21493;-87
2021/11/24 07:35:24;;;;;;;103.80;55.73;;;;;;;-1.12;78.52;101534.20;1414438;92;21626;-87
2021/11/24 07:37:50;;;;;;;91.75;48.70;;;;;;;-1.00;78.44;101531.23;1413127;92;21501;-86
2021/11/24 07:40:18;;;;;;;93.07;49.93;;;;;;;-0.88;78.43;101531.75;1393556;94;21524;-86
2021/11/24 07:42:44;;;;;;;91.15;49.50;;;;;;;-0.73;78.42;101528.20;1392946;93;21501;-87
2021/11/24 07:45:11;;;;;;;94.55;48.78;;;;;;;-0.57;78.33;101532.48;1380462;93;21524;-86
2021/11/24 07:47:37;;;;;;;83.50;45.88;;;;;;;-0.40;78.26;101536.27;1422812;92;22380;-87
2021/11/24 07:50:04;;;;;;;72.70;41.42;;;;;;;-0.32;78.15;101530.36;1416969;92;21464;-87
2021/11/24 07:52:30;;;;;;;74.03;44.08;;;;;;;-0.20;78.03;101528.67;1373269;94;21583;-87
2021/11/24 07:54:57;;;;;;;72.32;44.35;;;;;;;-0.08;77.91;101523.05;1417517;92;21485;-87
2021/11/24 07:57:23;;;;;;;73.20;41.67;;;;;;;0.06;77.90;101523.00;1398864;92;21560;-86
2021/11/24 07:59:50;;;;;;;67.93;40.83;;;;;;;0.19;77.77;101522.97;1416728;92;21880;-87
2021/11/24 08:02:16;;;;;;;64.63;37.50;;;;;;;0.29;77.73;101526.97;1409477;92;21673;-87
2021/11/24 08:04:42;;;;;;;70.10;41.57;;;;;;;0.39;77.73;101524.41;1412447;92;21853;-87
2021/11/24 08:07:09;;;;;;;72.67;41.47;;;;;;;0.50;77.52;101516.67;1418230;92;21930;-87
2021/11/24 08:09:35;;;;;;;78.30;42.20;;;;;;;0.58;77.36;101521.99;1366233;94;21660;-87
2021/11/24 08:12:01;;;;;;;71.77;41.20;;;;;;;0.65;77.23;101516.09;1380163;92;21873;-87
2021/11/24 08:14:29;;;;;;;63.90;37.13;;;;;;;0.75;77.31;101519.19;1393172;92;22386;-87
2021/11/24 08:16:55;;;;;;;69.83;38.70;;;;;;;0.84;77.14;101518.86;1419240;92;22553;-87
2021/11/24 08:19:22;;;;;;;65.47;39.93;;;;;;;0.93;77.18;101520.27;1421082;92;21836;-87
2021/11/24 08:21:49;;;;;;;72.60;42.50;;;;;;;1.02;77.05;101522.52;1412657;92;21980;-87
2021/11/24 08:24:15;;;;;;;69.53;40.90;;;;;;;1.13;77.05;101521.18;1415342;92;21792;-87
2021/11/24 08:26:42;;;;;;;65.27;38.23;;;;;;;1.29;77.02;101520.09;1376100;94;21683;-87
2021/11/24 08:29:10;;;;;;;65.73;38.53;;;;;;;1.35;76.62;101515.97;1414493;92;21568;-88
2021/11/24 08:31:40;;;;;;;61.87;38.20;;;;;;;1.41;76.38;101516.17;1387757;94;22753;-87
2021/11/24 08:34:08;;;;;;;64.57;38.80;;;;;;;1.47;76.14;101516.39;1418800;92;21699;-89
2021/11/24 08:36:36;;;;;;;62.07;37.03;;;;;;;1.57;76.14;101522.91;1399577;92;22778;-87
2021/11/24 08:39:13;;;;;;;65.93;37.70;;;;;;;1.67;76.02;101521.63;1413299;93;21820;-87
2021/11/24 08:41:41;;;;;;;65.73;39.60;;;;;;;1.83;76.12;101523.59;1407236;92;21880;-88
2021/11/24 08:44:07;;;;;;;68.67;39.57;;;;;;;1.95;75.70;101527.81;1415313;92;21752;-88
2021/11/24 08:46:34;;;;;;;67.47;39.47;;;;;;;2.12;75.66;101531.02;1405039;92;21596;-88
2021/11/24 08:49:00;;;;;;;62.17;38.07;;;;;;;2.26;75.52;101540.41;1407005;92;21926;-88
2021/11/24 08:51:27;;;;;;;61.57;38.23;;;;;;;2.42;75.22;101530.61;1412222;92;21815;-90
2021/11/24 08:53:53;;;;;;;56.57;35.80;;;;;;;2.57;75.05;101532.52;1393693;92;21801;-88
2021/11/24 08:56:19;;;;;;;58.97;36.57;;;;;;;2.66;74.28;101536.02;1407457;92;21782;-88
2021/11/24 08:58:46;;;;;;;56.10;33.47;;;;;;;2.75;73.80;101539.14;1412254;92;21963;-88
2021/11/24 09:01:12;;;;;;;57.90;34.17;;;;;;;2.81;73.42;101534.93;1416934;92;21835;-88
2021/11/24 09:03:38;;;;;;;52.97;34.23;;;;;;;2.89;72.95;101534.13;1391976;92;21897;-88
2021/11/24 09:06:06;;;;;;;52.40;32.87;;;;;;;2.95;72.88;101533.83;1414832;92;21821;-88
2021/11/24 09:08:33;;;;;;;49.47;31.57;;;;;;;3.05;73.13;101533.80;1418699;92;22730;-88
2021/11/24 09:11:01;;;;;;;50.23;33.27;;;;;;;3.13;72.55;101534.27;1415792;92;21937;-88
2021/11/24 09:13:27;;;;;;;50.63;32.93;;;;;;;3.23;72.44;101531.23;1409409;92;23055;-88
2021/11/24 09:15:54;;;;;;;53.83;31.77;;;;;;;3.37;72.13;101531.41;1413153;92;22117;-88
2021/11/24 09:18:20;;;;;;;51.27;32.30;;;;;;;3.37;72.13;101531.41;1399637;92;21979;-88
2021/11/24 09:20:47;;;;;;;48.70;30.73;;;;;;;3.51;71.20;101528.98;1422421;92;22002;-88
2021/11/24 09:23:17;;;;;;;56.53;33.57;;;;;;;3.67;72.16;101520.35;1392153;92;23787;-88
2021/11/24 09:28:31;;;;;;;50.40;32.17;;;;;;;5.04;68.89;101517.48;1414704;92;21626;-88
2021/11/24 09:30:58;;;;;;;50.93;30.77;;;;;;;5.96;66.39;101516.16;1419885;92;22050;-88
2021/11/24 09:33:25;;;;;;;49.47;31.07;;;;;;;6.63;64.44;101511.20;1412021;92;21515;-84
2021/11/24 09:35:51;;;;;;;46.93;32.57;;;;;;;7.26;64.32;101505.88;1419907;92;21486;-84
2021/11/24 09:38:19;;;;;;;51.73;32.73;;;;;;;7.84;63.41;101501.17;1397844;92;21522;-84
2021/11/24 09:40:48;;;;;;;48.73;31.50;;;;;;;8.22;61.52;101496.38;1419252;92;22372;-85
2021/11/24 09:43:17;;;;;;;49.50;31.50;;;;;;;8.52;59.86;101502.68;1413186;92;21529;-84
2021/11/24 09:45:46;;;;;;;44.93;29.97;;;;;;;8.99;60.68;101501.07;1412649;92;21678;-85
2021/11/24 09:48:16;;;;;;;44.43;29.97;;;;;;;9.39;58.87;101497.67;1418142;92;21731;-85
2021/11/24 09:50:46;;;;;;;47.17;32.77;;;;;;;9.55;56.69;101492.55;1417792;92;21640;-86
2021/11/24 09:53:14;;;;;;;;;;;;;;;9.75;56.65;101495.02;1425042;92;23796;-87
2021/11/24 09:55:40;;;;;;;43.23;30.17;;;;;;;9.97;53.97;101488.95;1411700;92;20320;-93
2021/11/24 09:58:09;;;;;;;41.90;30.40;;;;;;;10.12;55.27;101493.05;1417567;92;23143;-93
2021/11/24 10:00:40;;;;;;;40.40;29.93;;;;;;;10.18;55.22;101489.92;1409886;92;21486;-93
2021/11/24 10:03:07;;;;;;;41.35;29.70;;;;;;;10.18;53.55;101491.24;1397085;92;21397;-92
2021/11/24 10:05:35;;;;;;;43.20;29.73;;;;;;;10.09;53.74;101494.13;1413893;92;21552;-89
2021/11/24 10:08:01;;;;;;;36.90;27.17;;;;;;;9.68;52.42;101488.88;1406463;92;21509;-92
2021/11/24 10:10:28;;;;;;;46.20;32.20;;;;;;;9.71;53.31;101483.84;1381814;92;22558;-92
2021/11/24 10:12:55;;;;;;;36.30;27.60;;;;;;;9.74;53.31;101480.96;1400307;92;21457;-92
2021/11/24 10:15:46;;;;;;;43.57;32.43;;;;;;;9.81;52.87;101483.52;1416847;92;21493;-91
2021/11/24 10:18:23;;;;;;;43.45;30.43;;;;;;;9.84;53.84;101477.99;1395919;92;21641;-93
2021/11/24 10:20:57;;;;;;;43.93;28.57;;;;;;;10.00;53.90;101476.32;1403620;92;21479;-93
2021/11/24 10:23:32;;;;;;;41.53;26.57;;;;;;;10.00;53.11;101478.97;1413819;92;21518;-93
2021/11/24 10:26:28;;;;;;;35.27;25.93;;;;;;;10.07;52.82;101488.58;1418936;92;21537;-93
2021/11/24 10:29:02;;;;;;;34.43;26.77;;;;;;;9.92;52.27;101483.52;1419871;92;21479;-92
2021/11/24 10:31:40;;;;;;;36.83;26.70;;;;;;;9.91;52.94;101481.00;1420872;92;21627;-95
2021/11/24 10:34:32;;;;;;;35.27;28.23;;;;;;;9.78;52.31;101477.14;1419004;92;22485;-91
2021/11/24 10:37:06;;;;;;;34.27;25.47;;;;;;;9.83;51.79;101478.94;1418893;92;21678;-92
2021/11/24 10:39:51;;;;;;;46.43;27.03;;;;;;;9.84;52.34;101475.34;1420441;92;21486;-91
2021/11/24 10:42:41;;;;;;;33.20;24.77;;;;;;;9.92;52.26;101474.26;1416857;92;21500;-91
2021/11/24 10:45:14;;;;;;;36.95;25.15;;;;;;;9.84;51.14;101465.23;1415125;92;21493;-90
2021/11/24 10:47:58;;;;;;;35.53;24.30;;;;;;;9.87;52.13;101464.53;1417830;92;21544;-91
2021/11/24 10:50:29;;;;;;;34.57;24.97;;;;;;;9.75;50.92;101461.48;1421462;92;21685;-91
2021/11/24 10:52:56;;;;;;;;;;;;;;;9.69;51.26;101460.16;1414602;92;21523;-91
2021/11/24 10:55:33;;;;;;;42.30;24.97;;;;;;;9.66;50.12;101451.63;1402111;92;20275;-91
2021/11/24 10:58:18;;;;;;;31.13;23.77;;;;;;;9.76;52.60;101451.30;1415498;92;22102;-91
2021/11/24 11:00:52;;;;;;;31.93;23.47;;;;;;;9.98;51.67;101450.95;1413992;92;21419;-92
2021/11/24 11:03:21;;;;;;;31.27;22.67;;;;;;;10.01;51.40;101452.03;1383045;92;22077;-91
2021/11/24 11:05:51;;;;;;;33.10;23.40;;;;;;;10.06;51.66;101449.88;1407846;92;21596;-92
2021/11/24 11:08:18;;;;;;;30.60;23.23;;;;;;;10.15;51.24;101447.34;1395858;92;21589;-91
2021/11/24 11:10:49;;;;;;;33.00;24.60;;;;;;;10.14;51.13;101444.84;1413401;92;21477;-91
2021/11/24 11:13:21;;;;;;;32.57;23.93;;;;;;;10.23;51.13;101442.79;1416127;92;21464;-90
2021/11/24 11:15:54;;;;;;;31.53;22.00;;;;;;;10.28;50.52;101436.69;1417896;92;21479;-90
2021/11/24 11:18:26;;;;;;;32.70;23.90;;;;;;;10.34;50.65;101435.37;1416315;92;21596;-90